createdAt,value
2022-10-25T00:01:19.696Z,13.90
2022-10-25T00:03:47.704Z,13.90
2022-10-25T00:06:16.224Z,14.00
2022-10-25T00:08:44.143Z,14.00
2022-10-25T00:11:16.971Z,14.00
2022-10-25T00:13:46.296Z,14.00
2022-10-25T00:16:15.637Z,14.00
2022-10-25T00:18:43.613Z,13.90
2022-10-25T00:21:11.451Z,14.00
2022-10-25T00:23:39.316Z,14.00
2022-10-25T00:26:09.577Z,14.00
2022-10-25T00:28:37.573Z,14.10
2022-10-25T00:31:08.952Z,14.10
2022-10-25T00:33:38.242Z,14.10
2022-10-25T00:36:07.835Z,14.10
2022-10-25T00:38:36.476Z,14.10
2022-10-25T00:41:04.775Z,14.10
2022-10-25T00:43:34.895Z,14.20
2022-10-25T00:46:07.902Z,14.20
2022-10-25T00:48:36.028Z,14.20
2022-10-25T00:51:04.893Z,14.20
2022-10-25T00:53:37.769Z,14.20
2022-10-25T00:56:14.361Z,14.10
2022-10-25T00:58:45.283Z,14.20
2022-10-25T01:01:15.870Z,14.20
2022-10-25T01:03:45.875Z,14.20
2022-10-25T01:06:19.754Z,14.20
2022-10-25T01:08:49.275Z,14.20
2022-10-25T01:13:51.060Z,14.20
2022-10-25T01:16:29.787Z,14.30
2022-10-25T01:19:03.402Z,14.20
2022-10-25T01:21:49.717Z,14.30
2022-10-25T01:24:59.967Z,14.30
2022-10-25T01:28:04.694Z,14.30
2022-10-25T01:30:49.267Z,14.30
2022-10-25T01:33:24.030Z,14.30
2022-10-25T01:36:02.269Z,14.30
2022-10-25T01:38:40.200Z,14.30
2022-10-25T01:41:16.708Z,14.30
2022-10-25T01:43:56.132Z,14.30
2022-10-25T01:46:30.806Z,14.40
2022-10-25T01:49:04.131Z,14.40
2022-10-25T01:51:32.312Z,14.30
2022-10-25T01:54:00.270Z,14.30
2022-10-25T01:56:31.740Z,14.30
2022-10-25T01:59:20.569Z,14.30
2022-10-25T02:02:02.066Z,14.30
2022-10-25T02:04:45.105Z,14.30
2022-10-25T02:07:25.468Z,14.30
2022-10-25T02:10:01.873Z,14.30
2022-10-25T02:12:34.124Z,14.30
2022-10-25T02:15:09.794Z,14.20
2022-10-25T02:17:45.273Z,14.20
2022-10-25T02:20:18.068Z,14.20
2022-10-25T02:22:47.804Z,14.20
2022-10-25T02:25:17.704Z,14.20
2022-10-25T02:27:47.154Z,14.20
2022-10-25T02:30:15.893Z,14.20
2022-10-25T02:32:46.335Z,14.20
2022-10-25T02:35:16.341Z,14.20
2022-10-25T02:37:44.684Z,14.20
2022-10-25T02:40:13.371Z,14.20
2022-10-25T02:42:42.823Z,14.20
2022-10-25T02:45:11.733Z,14.10
2022-10-25T02:47:39.737Z,14.20
2022-10-25T02:50:09.947Z,14.20
2022-10-25T02:52:37.895Z,14.20
2022-10-25T02:55:06.705Z,14.20
2022-10-25T02:57:35.709Z,14.20
2022-10-25T03:00:09.503Z,14.20
2022-10-25T03:02:37.480Z,14.20
2022-10-25T03:05:05.777Z,14.10
2022-10-25T03:07:36.589Z,14.10
2022-10-25T03:10:06.841Z,14.10
2022-10-25T03:12:34.889Z,14.00
2022-10-25T03:15:03.879Z,14.00
2022-10-25T03:17:42.580Z,14.00
2022-10-25T03:20:11.565Z,14.00
2022-10-25T03:22:41.056Z,14.00
2022-10-25T03:25:18.296Z,13.90
2022-10-25T03:27:57.825Z,13.90
2022-10-25T03:30:31.440Z,13.90
2022-10-25T03:33:01.646Z,13.90
2022-10-25T03:35:36.271Z,13.90
2022-10-25T03:38:10.205Z,13.80
2022-10-25T03:40:38.538Z,13.80
2022-10-25T03:43:07.537Z,13.70
2022-10-25T03:45:43.525Z,13.70
2022-10-25T03:48:18.392Z,13.70
2022-10-25T03:50:48.195Z,13.70
2022-10-25T03:53:17.747Z,13.70
2022-10-25T03:55:49.463Z,13.70
2022-10-25T03:58:25.824Z,13.70
2022-10-25T04:01:03.235Z,13.70
2022-10-25T04:03:38.035Z,13.70
2022-10-25T04:06:12.058Z,13.70
2022-10-25T04:08:41.459Z,13.70
2022-10-25T04:11:13.536Z,13.70
2022-10-25T04:13:51.520Z,13.70
2022-10-25T04:16:19.771Z,13.70
2022-10-25T04:18:48.147Z,13.70
2022-10-25T04:21:16.532Z,13.70
2022-10-25T04:23:45.778Z,13.80
2022-10-25T04:26:17.894Z,13.80
2022-10-25T04:28:46.243Z,13.80
2022-10-25T04:31:14.746Z,13.70
2022-10-25T04:33:46.623Z,13.80
2022-10-25T04:36:17.616Z,13.80
2022-10-25T04:38:48.962Z,13.80
2022-10-25T04:41:17.068Z,13.80
2022-10-25T04:43:45.983Z,13.80
2022-10-25T04:46:15.153Z,13.70
2022-10-25T04:48:43.891Z,13.70
2022-10-25T04:51:12.933Z,13.70
2022-10-25T04:53:41.077Z,13.70
2022-10-25T04:56:12.517Z,13.80
2022-10-25T04:58:41.230Z,13.70
2022-10-25T05:01:11.768Z,13.70
2022-10-25T05:03:39.773Z,13.70
2022-10-25T05:06:09.917Z,13.70
2022-10-25T05:08:40.718Z,13.80
2022-10-25T05:11:11.047Z,13.80
2022-10-25T05:13:40.643Z,13.70
2022-10-25T05:16:11.146Z,13.70
2022-10-25T05:18:39.094Z,13.70
2022-10-25T05:21:07.606Z,13.70
2022-10-25T05:23:36.225Z,13.70
2022-10-25T05:26:06.144Z,13.70
2022-10-25T05:28:37.143Z,13.70
2022-10-25T05:31:06.242Z,13.70
2022-10-25T05:33:34.578Z,13.70
2022-10-25T05:36:02.571Z,13.70
2022-10-25T05:38:34.211Z,13.70
2022-10-25T05:41:04.942Z,13.70
2022-10-25T05:43:32.941Z,13.70
2022-10-25T05:46:06.673Z,13.70
2022-10-25T05:48:36.350Z,13.80
2022-10-25T05:51:33.759Z,13.70
2022-10-25T05:54:03.753Z,13.80
2022-10-25T05:56:33.045Z,13.80
2022-10-25T05:59:03.852Z,13.80
2022-10-25T06:01:33.125Z,13.80
2022-10-25T06:04:03.525Z,13.80
2022-10-25T06:06:31.465Z,13.80
2022-10-25T06:09:00.899Z,13.80
2022-10-25T06:11:30.338Z,13.70
2022-10-25T06:13:58.492Z,13.70
2022-10-25T06:16:26.834Z,13.70
2022-10-25T06:18:56.074Z,13.70
2022-10-25T06:21:25.482Z,13.80
2022-10-25T06:23:55.906Z,13.80
2022-10-25T06:26:25.590Z,13.70
2022-10-25T06:28:55.116Z,13.70
2022-10-25T06:31:23.326Z,13.70
2022-10-25T06:33:51.200Z,13.70
2022-10-25T06:36:22.159Z,13.70
2022-10-25T06:38:51.060Z,13.70
2022-10-25T06:41:20.311Z,13.70
2022-10-25T06:43:48.860Z,13.70
2022-10-25T06:46:22.380Z,13.70
2022-10-25T06:48:50.303Z,13.70
2022-10-25T06:51:18.770Z,13.70
2022-10-25T06:53:48.077Z,13.70
2022-10-25T06:56:16.033Z,13.70
2022-10-25T06:58:44.710Z,13.70
2022-10-25T07:01:14.778Z,13.70
2022-10-25T07:03:43.215Z,13.70
2022-10-25T07:06:12.663Z,13.70
2022-10-25T07:08:42.191Z,13.80
2022-10-25T07:11:16.088Z,13.80
2022-10-25T07:13:44.179Z,13.90
2022-10-25T07:16:13.783Z,13.90
2022-10-25T07:18:41.988Z,13.90
2022-10-25T07:21:13.576Z,13.90
2022-10-25T07:23:42.958Z,13.90
2022-10-25T07:26:14.145Z,13.90
2022-10-25T07:28:43.380Z,13.80
2022-10-25T07:31:12.891Z,13.80
2022-10-25T07:33:40.798Z,13.90
2022-10-25T07:36:11.510Z,13.90
2022-10-25T07:38:39.904Z,13.90
2022-10-25T07:41:08.533Z,13.90
2022-10-25T07:43:38.128Z,14.00
2022-10-25T07:46:06.439Z,14.00
2022-10-25T07:48:34.529Z,14.00
2022-10-25T07:51:04.889Z,14.00
2022-10-25T07:53:32.792Z,14.10
2022-10-25T07:56:00.938Z,14.10
2022-10-25T07:58:28.818Z,14.20
2022-10-25T08:01:03.953Z,14.20
2022-10-25T08:03:32.403Z,14.20
2022-10-25T08:06:00.796Z,14.20
2022-10-25T08:08:29.299Z,14.20
2022-10-25T08:10:57.740Z,14.20
2022-10-25T08:13:25.584Z,14.20
2022-10-25T08:15:54.586Z,14.20
2022-10-25T08:18:24.901Z,14.20
2022-10-25T08:21:08.283Z,14.20
2022-10-25T08:23:36.170Z,14.20
2022-10-25T08:26:04.255Z,14.20
2022-10-25T08:28:32.287Z,14.30
2022-10-25T08:31:00.764Z,14.30
2022-10-25T08:33:30.950Z,14.30
2022-10-25T08:36:01.884Z,14.40
2022-10-25T08:38:30.080Z,14.30
2022-10-25T08:41:03.495Z,14.40
2022-10-25T08:44:05.736Z,14.40
2022-10-25T08:46:38.653Z,14.40
2022-10-25T08:49:17.704Z,14.40
2022-10-25T08:51:48.389Z,14.40
2022-10-25T08:54:27.260Z,14.40
2022-10-25T08:57:17.852Z,14.40
2022-10-25T08:59:50.785Z,14.40
2022-10-25T09:02:24.532Z,14.40
2022-10-25T09:04:54.661Z,14.40
2022-10-25T09:07:53.192Z,14.40
2022-10-25T09:10:30.445Z,14.40
2022-10-25T09:13:10.525Z,14.50
2022-10-25T09:15:48.692Z,14.50
2022-10-25T09:18:19.338Z,14.50
2022-10-25T09:20:51.731Z,14.50
2022-10-25T09:23:28.757Z,14.50
2022-10-25T09:26:05.469Z,14.60
2022-10-25T09:28:52.079Z,14.60
2022-10-25T09:31:23.498Z,14.60
2022-10-25T09:33:57.771Z,14.70
2022-10-25T09:36:32.920Z,14.70
2022-10-25T09:39:04.010Z,14.80
2022-10-25T09:41:36.283Z,14.80
2022-10-25T09:44:07.880Z,14.80
2022-10-25T09:46:40.010Z,14.80
2022-10-25T09:49:21.968Z,14.70
2022-10-25T09:52:00.690Z,14.70
2022-10-25T09:54:33.889Z,14.70
2022-10-25T09:57:01.938Z,14.60
2022-10-25T09:59:29.821Z,14.70
2022-10-25T10:01:57.806Z,14.70
2022-10-25T10:04:31.616Z,14.70
2022-10-25T10:07:05.598Z,14.80
2022-10-25T10:09:35.721Z,14.80
2022-10-25T10:12:05.499Z,14.80
2022-10-25T10:14:37.856Z,14.80
2022-10-25T10:17:08.299Z,14.80
2022-10-25T10:19:36.191Z,14.90
2022-10-25T10:22:10.575Z,14.90
2022-10-25T10:24:43.363Z,15.00
2022-10-25T10:27:14.761Z,15.00
2022-10-25T10:29:55.588Z,15.00
2022-10-25T10:32:27.424Z,15.00
2022-10-25T10:34:58.147Z,15.00
2022-10-25T10:37:28.576Z,15.00
2022-10-25T10:39:58.203Z,15.10
2022-10-25T10:42:35.575Z,15.20
2022-10-25T10:45:19.319Z,15.20
2022-10-25T10:47:57.078Z,15.20
2022-10-25T10:50:28.662Z,15.20
2022-10-25T10:53:01.042Z,15.30
2022-10-25T10:55:31.764Z,15.40
2022-10-25T10:58:03.691Z,15.40
2022-10-25T11:00:33.042Z,15.50
2022-10-25T11:03:01.255Z,15.60
2022-10-25T11:05:31.361Z,15.60
2022-10-25T11:08:02.304Z,15.70
2022-10-25T11:10:32.342Z,15.70
2022-10-25T11:13:15.178Z,15.70
2022-10-25T11:16:16.071Z,15.70
2022-10-25T11:18:51.935Z,15.70
2022-10-25T11:21:40.475Z,15.60
2022-10-25T11:24:18.809Z,15.60
2022-10-25T11:27:05.152Z,15.70
2022-10-25T11:29:46.788Z,15.80
2022-10-25T11:35:18.235Z,16.00
2022-10-25T11:37:52.426Z,16.20
2022-10-25T11:40:27.991Z,16.20
2022-10-25T11:43:09.066Z,16.20
2022-10-25T11:45:41.803Z,16.20
2022-10-25T11:48:38.961Z,16.10
2022-10-25T11:51:16.151Z,16.10
2022-10-25T11:54:08.585Z,16.00
2022-10-25T11:56:46.294Z,16.00
2022-10-25T11:59:20.575Z,16.10
2022-10-25T12:02:04.314Z,16.10
2022-10-25T12:04:48.814Z,16.10
2022-10-25T12:07:23.270Z,16.20
2022-10-25T12:10:02.881Z,16.20
2022-10-25T12:12:41.860Z,16.20
2022-10-25T12:15:17.619Z,16.20
2022-10-25T12:17:45.707Z,16.30
2022-10-25T12:20:22.607Z,16.30
2022-10-25T12:22:53.333Z,16.40
2022-10-25T12:25:28.376Z,16.30
2022-10-25T12:28:06.574Z,16.40
2022-10-25T12:30:36.311Z,16.40
2022-10-25T12:33:13.490Z,16.40
2022-10-25T12:35:47.962Z,16.40
2022-10-25T12:38:25.396Z,16.40
2022-10-25T12:40:59.682Z,16.40
2022-10-25T12:43:34.020Z,16.40
2022-10-25T12:46:23.171Z,16.40
2022-10-25T12:49:24.166Z,16.50
2022-10-25T12:52:04.892Z,16.50
2022-10-25T12:54:49.388Z,16.50
2022-10-25T12:57:26.635Z,16.50
2022-10-25T13:00:06.104Z,16.50
2022-10-25T13:03:10.019Z,16.50
2022-10-25T13:06:20.201Z,16.50
2022-10-25T13:08:48.542Z,16.60
2022-10-25T13:11:16.505Z,16.60
2022-10-25T13:13:50.457Z,16.60
2022-10-25T13:16:27.066Z,16.60
2022-10-25T13:19:36.256Z,16.60
2022-10-25T13:22:34.010Z,16.60
2022-10-25T13:25:06.616Z,16.60
2022-10-25T13:27:35.634Z,16.60
2022-10-25T13:30:23.944Z,16.60
2022-10-25T13:33:33.523Z,16.60
2022-10-25T13:36:05.785Z,16.60
2022-10-25T13:38:39.394Z,16.60
2022-10-25T13:41:12.817Z,16.60
2022-10-25T13:44:00.908Z,16.60
2022-10-25T13:46:33.699Z,16.70
2022-10-25T13:49:05.412Z,16.60
2022-10-25T13:51:34.589Z,16.70
2022-10-25T13:54:08.469Z,16.70
2022-10-25T13:56:50.777Z,16.80
2022-10-25T14:00:00.547Z,16.80
2022-10-25T14:02:28.513Z,16.90
2022-10-25T14:04:56.349Z,16.90
2022-10-25T14:07:48.581Z,16.80
2022-10-25T14:10:29.906Z,16.80
2022-10-25T14:13:12.731Z,16.80
2022-10-25T14:15:47.890Z,16.70
2022-10-25T14:18:20.305Z,16.70
2022-10-25T14:20:50.856Z,16.70
2022-10-25T14:23:23.217Z,16.80
2022-10-25T14:25:54.321Z,16.80
2022-10-25T14:28:27.206Z,16.80
2022-10-25T14:30:57.649Z,16.80
2022-10-25T14:33:36.583Z,16.80
2022-10-25T14:36:12.340Z,16.80
2022-10-25T14:38:53.300Z,16.70
2022-10-25T14:41:23.539Z,16.70
2022-10-25T14:43:51.669Z,16.70
2022-10-25T14:46:21.120Z,16.60
2022-10-25T14:48:50.407Z,16.60
2022-10-25T14:51:21.989Z,16.60
2022-10-25T14:53:55.283Z,16.60
2022-10-25T14:56:27.094Z,16.50
2022-10-25T14:58:56.037Z,16.50
2022-10-25T15:01:24.612Z,16.50
2022-10-25T15:03:55.451Z,16.50
2022-10-25T15:06:26.728Z,16.50
2022-10-25T15:09:29.037Z,16.40
2022-10-25T15:12:15.263Z,16.40
2022-10-25T15:14:43.642Z,16.40
2022-10-25T15:17:18.930Z,16.40
2022-10-25T15:20:05.241Z,16.40
2022-10-25T15:22:34.580Z,16.30
2022-10-25T15:25:16.863Z,16.30
2022-10-25T15:27:45.519Z,16.30
2022-10-25T15:30:34.967Z,16.30
2022-10-25T15:33:03.415Z,16.30
2022-10-25T15:35:33.230Z,16.30
2022-10-25T15:38:01.083Z,16.30
2022-10-25T15:40:30.249Z,16.30
2022-10-25T15:42:58.077Z,16.20
2022-10-25T15:45:25.943Z,16.20
2022-10-25T15:47:55.117Z,16.20
2022-10-25T15:50:23.022Z,16.20
2022-10-25T15:52:51.046Z,16.20
2022-10-25T15:55:21.203Z,16.10
2022-10-25T15:57:51.056Z,16.10
2022-10-25T16:00:22.999Z,16.10
2022-10-25T16:02:54.294Z,16.00
2022-10-25T16:05:24.240Z,16.00
2022-10-25T16:07:52.636Z,16.00
2022-10-25T16:10:22.159Z,16.00
2022-10-25T16:12:58.510Z,15.90
2022-10-25T16:15:27.918Z,15.90
2022-10-25T16:17:55.800Z,15.90
2022-10-25T16:20:25.481Z,15.80
2022-10-25T16:22:54.607Z,15.80
2022-10-25T16:25:25.222Z,15.80
2022-10-25T16:27:56.904Z,15.70
2022-10-25T16:30:26.613Z,15.70
2022-10-25T16:32:54.513Z,15.70
2022-10-25T16:35:24.309Z,15.70
2022-10-25T16:37:52.257Z,15.60
2022-10-25T16:40:21.648Z,15.60
2022-10-25T16:42:51.093Z,15.60
2022-10-25T16:45:23.647Z,15.50
2022-10-25T16:47:51.559Z,15.50
2022-10-25T16:50:23.099Z,15.50
2022-10-25T16:52:51.264Z,15.40
2022-10-25T16:55:19.411Z,15.40
2022-10-25T17:00:17.404Z,15.30
2022-10-25T17:02:46.967Z,15.30
2022-10-25T17:05:21.481Z,15.20
2022-10-25T17:07:49.389Z,15.20
2022-10-25T17:10:18.811Z,15.20
2022-10-25T17:12:48.627Z,15.20
2022-10-25T17:15:17.854Z,15.10
2022-10-25T17:17:47.289Z,15.10
2022-10-25T17:20:17.337Z,15.10
2022-10-25T17:22:45.214Z,15.00
2022-10-25T17:25:13.605Z,15.00
2022-10-25T17:27:47.734Z,15.00
2022-10-25T17:30:17.070Z,14.90
2022-10-25T17:32:46.690Z,14.90
2022-10-25T17:35:14.807Z,14.90
2022-10-25T17:37:44.445Z,14.80
2022-10-25T17:40:14.594Z,14.80
2022-10-25T17:42:42.453Z,14.70
2022-10-25T17:45:11.169Z,14.70
2022-10-25T17:47:42.423Z,14.60
2022-10-25T17:50:12.877Z,14.60
2022-10-25T17:52:42.230Z,14.60
2022-10-25T17:55:11.675Z,14.50
2022-10-25T17:57:39.494Z,14.50
2022-10-25T18:00:08.744Z,14.50
2022-10-25T18:02:36.636Z,14.40
2022-10-25T18:05:21.155Z,14.40
2022-10-25T18:07:51.102Z,14.40
2022-10-25T18:10:19.437Z,14.40
2022-10-25T18:12:47.555Z,14.40
2022-10-25T18:15:15.594Z,14.40
2022-10-25T18:17:46.259Z,14.30
2022-10-25T18:20:15.293Z,14.30
2022-10-25T18:22:43.136Z,14.20
2022-10-25T18:25:12.536Z,14.20
2022-10-25T18:27:40.439Z,14.20
2022-10-25T18:30:09.716Z,14.20
2022-10-25T18:32:37.546Z,14.20
2022-10-25T18:35:05.700Z,14.20
2022-10-25T18:37:33.626Z,14.10
2022-10-25T18:40:01.506Z,14.10
2022-10-25T18:42:30.709Z,14.10
2022-10-25T18:44:58.575Z,14.10
2022-10-25T18:47:26.473Z,14.10
2022-10-25T18:49:54.271Z,14.10
2022-10-25T18:52:23.146Z,14.10
2022-10-25T18:54:51.028Z,14.10
2022-10-25T18:57:18.808Z,14.10
2022-10-25T18:59:48.001Z,14.10
2022-10-25T19:02:16.003Z,14.00
2022-10-25T19:04:43.969Z,14.00
2022-10-25T19:07:11.817Z,14.00
2022-10-25T19:09:39.667Z,14.00
2022-10-25T19:12:07.674Z,14.00
2022-10-25T19:14:35.615Z,13.90
2022-10-25T19:17:04.945Z,13.90
2022-10-25T19:19:32.807Z,13.80
2022-10-25T19:22:00.661Z,13.80
2022-10-25T19:24:28.654Z,13.80
2022-10-25T19:26:57.781Z,13.80
2022-10-25T19:29:25.839Z,13.70
2022-10-25T19:31:53.680Z,13.70
2022-10-25T19:34:22.872Z,13.70
2022-10-25T19:36:51.113Z,13.70
2022-10-25T19:39:19.052Z,13.70
2022-10-25T19:41:46.897Z,13.70
2022-10-25T19:44:14.740Z,13.70
2022-10-25T19:46:42.570Z,13.70
2022-10-25T19:49:11.478Z,13.70
2022-10-25T19:51:40.660Z,13.70
2022-10-25T19:54:08.793Z,13.70
2022-10-25T19:56:38.622Z,13.70
2022-10-25T19:59:07.191Z,13.70
2022-10-25T20:01:35.109Z,13.70
2022-10-25T20:04:03.117Z,13.70
2022-10-25T20:06:33.316Z,13.70
2022-10-25T20:09:03.154Z,13.70
2022-10-25T20:11:31.424Z,13.60
2022-10-25T20:14:01.031Z,13.60
2022-10-25T20:16:29.812Z,13.50
2022-10-25T20:18:59.769Z,13.40
2022-10-25T20:21:31.962Z,13.40
2022-10-25T20:24:03.363Z,13.40
2022-10-25T20:26:33.482Z,13.40
2022-10-25T20:29:03.531Z,13.30
2022-10-25T20:31:33.703Z,13.30
2022-10-25T20:34:02.487Z,13.30
2022-10-25T20:36:30.452Z,13.20
2022-10-25T20:38:58.309Z,13.20
2022-10-25T20:41:29.179Z,13.10
2022-10-25T20:43:59.744Z,13.10
2022-10-25T20:46:29.142Z,13.10
2022-10-25T20:48:58.326Z,13.10
2022-10-25T20:51:26.661Z,13.00
2022-10-25T20:53:55.037Z,13.00
2022-10-25T20:56:23.357Z,13.00
2022-10-25T20:58:52.715Z,13.00
2022-10-25T21:01:20.777Z,13.00
2022-10-25T21:03:48.805Z,13.00
2022-10-25T21:06:16.623Z,12.90
2022-10-25T21:08:44.406Z,12.90
2022-10-25T21:11:13.985Z,12.90
2022-10-25T21:13:41.985Z,12.80
2022-10-25T21:16:13.229Z,12.80
2022-10-25T21:18:41.598Z,12.80
2022-10-25T21:21:12.048Z,12.80
2022-10-25T21:23:39.897Z,12.80
2022-10-25T21:26:09.469Z,12.80
2022-10-25T21:28:38.912Z,12.80
2022-10-25T21:31:08.449Z,12.80
2022-10-25T21:33:38.139Z,12.80
2022-10-25T21:36:08.039Z,12.80
2022-10-25T21:38:36.013Z,12.80
2022-10-25T21:41:08.277Z,12.80
2022-10-25T21:43:36.304Z,12.70
2022-10-25T21:46:07.627Z,12.70
2022-10-25T21:48:37.220Z,12.70
2022-10-25T21:51:05.434Z,12.70
2022-10-25T21:53:33.747Z,12.70
2022-10-25T21:56:10.422Z,12.70
2022-10-25T21:58:39.050Z,12.70
2022-10-25T22:01:11.089Z,12.60
2022-10-25T22:03:40.607Z,12.60
2022-10-25T22:06:09.286Z,12.60
2022-10-25T22:08:37.396Z,12.50
2022-10-25T22:11:07.970Z,12.50
2022-10-25T22:13:36.248Z,12.50
2022-10-25T22:16:06.607Z,12.50
2022-10-25T22:18:34.826Z,12.50
2022-10-25T22:21:05.754Z,12.50
2022-10-25T22:23:33.919Z,12.50
2022-10-25T22:26:02.829Z,12.50
2022-10-25T22:28:31.172Z,12.40
2022-10-25T22:31:00.010Z,12.40
2022-10-25T22:33:27.813Z,12.40
2022-10-25T22:35:56.125Z,12.40
2022-10-25T22:38:25.344Z,12.40
2022-10-25T22:40:59.967Z,12.40
2022-10-25T22:43:28.042Z,12.30
2022-10-25T22:45:56.435Z,12.30
2022-10-25T22:48:24.401Z,12.30
2022-10-25T22:50:54.055Z,12.30
2022-10-25T22:53:22.858Z,12.30
2022-10-25T22:56:00.399Z,12.30
2022-10-25T22:58:29.705Z,12.30
2022-10-25T23:01:05.831Z,12.30
2022-10-25T23:03:34.386Z,12.20
2022-10-25T23:06:03.228Z,12.20
2022-10-25T23:08:31.567Z,12.20
2022-10-25T23:11:01.948Z,12.20
2022-10-25T23:13:30.212Z,12.20
2022-10-25T23:15:58.233Z,12.20
2022-10-25T23:18:26.651Z,12.20
2022-10-25T23:20:56.028Z,12.20
2022-10-25T23:23:24.812Z,12.10
2022-10-25T23:25:52.995Z,12.10
2022-10-25T23:28:22.450Z,12.10
2022-10-25T23:30:50.290Z,12.00
2022-10-25T23:33:18.164Z,12.00
2022-10-25T23:35:46.212Z,12.00
2022-10-25T23:38:14.866Z,12.00
2022-10-25T23:40:47.582Z,12.00
2022-10-25T23:43:15.513Z,12.10
2022-10-25T23:45:44.737Z,12.10
2022-10-25T23:48:12.648Z,12.20
2022-10-25T23:50:40.518Z,12.20
2022-10-25T23:53:09.398Z,12.30
2022-10-25T23:55:38.619Z,12.30
2022-10-25T23:58:06.447Z,12.30
